createdAt,value
2017-11-09T00:01:14.424Z,99.90
2017-11-09T00:04:30.124Z,99.90
2017-11-09T00:07:41.249Z,99.90
2017-11-09T00:10:51.500Z,99.90
2017-11-09T00:14:01.978Z,99.90
2017-11-09T00:17:12.033Z,99.90
2017-11-09T00:20:22.345Z,99.90
2017-11-09T00:23:32.372Z,99.90
2017-11-09T00:26:42.262Z,99.90
2017-11-09T00:29:53.262Z,99.90
2017-11-09T00:33:03.277Z,99.90
2017-11-09T00:36:13.264Z,99.90
2017-11-09T00:39:23.161Z,99.90
2017-11-09T00:42:33.188Z,99.90
2017-11-09T00:45:43.093Z,99.90
2017-11-09T00:48:53.961Z,99.90
2017-11-09T00:52:04.173Z,99.90
2017-11-09T00:55:13.943Z,99.90
2017-11-09T00:58:24.269Z,99.90
2017-11-09T01:01:34.045Z,99.90
2017-11-09T01:04:44.292Z,99.90
2017-11-09T01:07:54.696Z,99.90
2017-11-09T01:11:04.496Z,99.90
2017-11-09T01:14:15.298Z,99.90
2017-11-09T01:17:25.620Z,99.90
2017-11-09T01:20:36.040Z,99.90
2017-11-09T01:23:46.711Z,99.90
2017-11-09T01:26:56.909Z,99.90
2017-11-09T01:30:07.545Z,99.90
2017-11-09T01:33:18.046Z,99.90
2017-11-09T01:36:27.897Z,99.90
2017-11-09T01:39:37.865Z,99.90
2017-11-09T01:42:47.910Z,99.90
2017-11-09T01:45:58.334Z,99.90
2017-11-09T01:49:08.190Z,99.90
2017-11-09T01:52:18.245Z,99.90
2017-11-09T01:55:28.314Z,99.90
2017-11-09T01:58:38.391Z,99.90
2017-11-09T02:01:48.217Z,99.90
2017-11-09T02:04:58.810Z,99.90
2017-11-09T02:08:08.592Z,99.90
2017-11-09T02:11:18.542Z,99.90
2017-11-09T02:14:28.712Z,99.90
2017-11-09T02:17:38.729Z,99.90
2017-11-09T02:20:48.784Z,99.90
2017-11-09T02:23:58.744Z,99.90
2017-11-09T02:27:08.881Z,99.90
2017-11-09T02:30:18.704Z,99.90
2017-11-09T02:33:28.660Z,99.90
2017-11-09T02:36:38.711Z,99.90
2017-11-09T02:39:48.804Z,99.90
2017-11-09T02:42:59.389Z,99.90
2017-11-09T02:46:10.501Z,99.90
2017-11-09T02:49:20.869Z,99.90
2017-11-09T02:52:31.512Z,99.90
2017-11-09T02:55:41.257Z,99.90
2017-11-09T02:58:51.358Z,99.90
2017-11-09T03:02:02.357Z,99.90
2017-11-09T03:05:12.517Z,99.90
2017-11-09T03:08:23.386Z,99.90
2017-11-09T03:11:33.785Z,99.90
2017-11-09T03:14:43.749Z,99.90
2017-11-09T03:17:53.801Z,99.90
2017-11-09T03:21:04.625Z,99.90
2017-11-09T03:24:15.613Z,99.90
2017-11-09T03:27:25.833Z,99.90
2017-11-09T03:30:36.569Z,99.90
2017-11-09T03:33:47.005Z,99.90
2017-11-09T03:36:58.121Z,99.90
2017-11-09T03:40:08.499Z,99.90
2017-11-09T03:43:18.352Z,99.90
2017-11-09T03:46:28.256Z,99.90
2017-11-09T03:49:38.403Z,99.90
2017-11-09T03:52:49.097Z,99.90
2017-11-09T03:55:59.035Z,99.90
2017-11-09T03:59:09.689Z,99.90
2017-11-09T04:02:19.729Z,99.90
2017-11-09T04:05:30.283Z,99.90
2017-11-09T04:08:40.328Z,99.90
2017-11-09T04:11:50.337Z,99.90
2017-11-09T04:15:00.428Z,99.90
2017-11-09T04:18:10.295Z,99.90
2017-11-09T04:21:20.225Z,99.90
2017-11-09T04:24:31.287Z,99.90
2017-11-09T04:27:41.372Z,99.90
2017-11-09T04:30:51.183Z,99.90
2017-11-09T04:34:01.414Z,99.90
2017-11-09T04:37:12.353Z,99.90
2017-11-09T04:40:21.998Z,99.90
2017-11-09T04:43:32.133Z,99.90
2017-11-09T04:46:42.057Z,99.90
2017-11-09T04:49:52.835Z,99.90
2017-11-09T04:53:03.464Z,99.90
2017-11-09T04:56:13.760Z,99.90
2017-11-09T04:59:24.029Z,99.90
2017-11-09T05:02:34.091Z,99.90
2017-11-09T05:05:44.583Z,99.90
2017-11-09T05:08:54.605Z,99.90
2017-11-09T05:12:04.508Z,99.90
2017-11-09T05:15:14.669Z,99.90
2017-11-09T05:18:24.525Z,99.90
2017-11-09T05:21:34.769Z,99.90
2017-11-09T05:24:45.300Z,99.90
2017-11-09T05:27:56.564Z,99.90
2017-11-09T05:31:06.659Z,99.90
2017-11-09T05:34:16.432Z,99.90
2017-11-09T05:37:27.273Z,99.90
2017-11-09T05:40:37.056Z,99.90
2017-11-09T05:43:47.117Z,99.90
2017-11-09T05:46:57.347Z,99.90
2017-11-09T05:50:07.218Z,99.90
2017-11-09T05:53:17.280Z,99.90
2017-11-09T05:56:27.463Z,99.90
2017-11-09T05:59:38.889Z,99.90
2017-11-09T06:02:49.913Z,99.90
2017-11-09T06:06:00.560Z,99.90
2017-11-09T06:09:10.673Z,99.90
2017-11-09T06:12:21.202Z,99.90
2017-11-09T06:15:31.836Z,99.90
2017-11-09T06:18:41.983Z,99.90
2017-11-09T06:21:52.405Z,99.90
2017-11-09T06:25:03.929Z,99.90
2017-11-09T06:28:13.777Z,99.90
2017-11-09T06:31:24.132Z,99.90
2017-11-09T06:34:34.222Z,99.90
2017-11-09T06:37:44.718Z,99.90
2017-11-09T06:40:55.050Z,99.90
2017-11-09T06:44:05.056Z,99.90
2017-11-09T06:47:16.227Z,99.90
2017-11-09T06:50:26.536Z,99.90
2017-11-09T06:53:36.533Z,99.90
2017-11-09T06:56:46.480Z,99.90
2017-11-09T06:59:56.374Z,99.90
2017-11-09T07:03:06.135Z,99.90
2017-11-09T07:06:16.134Z,99.90
2017-11-09T07:09:26.164Z,99.90
2017-11-09T07:12:36.000Z,99.90
2017-11-09T07:15:46.133Z,99.90
2017-11-09T07:18:56.356Z,99.90
2017-11-09T07:22:06.565Z,99.90
2017-11-09T07:25:16.707Z,99.90
2017-11-09T07:28:27.432Z,99.90
2017-11-09T07:31:37.481Z,99.90
2017-11-09T07:34:47.453Z,99.90
2017-11-09T07:37:57.748Z,99.90
2017-11-09T07:41:07.884Z,99.90
2017-11-09T07:44:18.113Z,99.90
2017-11-09T07:47:28.700Z,99.90
2017-11-09T07:50:39.022Z,99.90
2017-11-09T07:53:49.688Z,99.90
2017-11-09T07:57:00.534Z,99.90
2017-11-09T08:00:10.819Z,99.90
2017-11-09T08:03:20.881Z,99.90
2017-11-09T08:06:31.267Z,99.90
2017-11-09T08:09:41.214Z,99.90
2017-11-09T08:12:51.363Z,99.90
2017-11-09T08:16:01.132Z,99.90
2017-11-09T08:19:10.860Z,99.90
2017-11-09T08:22:21.795Z,99.90
2017-11-09T08:25:35.024Z,99.90
2017-11-09T08:28:47.149Z,99.90
2017-11-09T08:32:02.027Z,99.90
2017-11-09T08:35:13.196Z,99.90
2017-11-09T08:38:23.184Z,99.90
2017-11-09T08:41:34.073Z,99.90
2017-11-09T08:44:44.803Z,99.90
2017-11-09T08:47:55.121Z,99.90
2017-11-09T08:51:05.896Z,99.90
2017-11-09T08:54:16.099Z,99.90
2017-11-09T08:57:26.860Z,99.90
2017-11-09T09:00:37.222Z,99.90
2017-11-09T09:03:47.182Z,99.90
2017-11-09T09:06:57.150Z,99.90
2017-11-09T09:10:06.967Z,99.90
2017-11-09T09:13:16.771Z,99.90
2017-11-09T09:16:27.176Z,99.90
2017-11-09T09:19:37.934Z,99.90
2017-11-09T09:23:02.471Z,99.90
2017-11-09T09:26:17.785Z,99.90
2017-11-09T09:29:32.317Z,99.90
2017-11-09T09:32:46.961Z,99.90
2017-11-09T09:39:46.009Z,99.90
2017-11-09T09:42:56.141Z,99.90
2017-11-09T09:46:06.655Z,99.90
2017-11-09T09:49:17.416Z,99.90
2017-11-09T09:52:27.934Z,99.90
2017-11-09T09:55:38.217Z,99.90
2017-11-09T09:58:48.384Z,99.90
2017-11-09T10:01:59.132Z,99.90
2017-11-09T10:05:10.066Z,99.90
2017-11-09T10:08:20.572Z,99.90
2017-11-09T10:11:30.641Z,99.90
2017-11-09T10:14:41.381Z,99.90
2017-11-09T10:17:51.255Z,99.90
2017-11-09T10:21:01.287Z,99.90
2017-11-09T10:24:11.921Z,99.90
2017-11-09T10:27:23.120Z,99.90
2017-11-09T10:30:34.248Z,99.90
2017-11-09T10:33:44.510Z,99.90
2017-11-09T10:36:55.444Z,99.90
2017-11-09T10:40:06.354Z,99.90
2017-11-09T10:43:16.338Z,99.90
2017-11-09T10:46:26.320Z,99.90
2017-11-09T10:49:36.373Z,99.90
2017-11-09T10:52:46.380Z,99.90
2017-11-09T10:55:56.408Z,99.90
2017-11-09T10:59:06.589Z,99.90
2017-11-09T11:02:17.577Z,99.90
2017-11-09T11:05:27.155Z,99.90
2017-11-09T11:08:37.803Z,99.90
2017-11-09T11:11:47.358Z,99.90
2017-11-09T11:14:57.243Z,99.90
2017-11-09T11:18:07.637Z,99.90
2017-11-09T11:21:18.033Z,99.90
2017-11-09T11:24:29.433Z,99.90
2017-11-09T11:27:39.988Z,99.90
2017-11-09T11:30:50.661Z,99.90
2017-11-09T11:34:00.530Z,99.90
2017-11-09T11:37:14.806Z,99.90
2017-11-09T11:40:25.385Z,99.90
2017-11-09T11:43:35.354Z,99.90
2017-11-09T11:46:45.255Z,99.90
2017-11-09T11:49:56.137Z,99.90
2017-11-09T11:53:06.078Z,99.90
2017-11-09T11:56:16.074Z,99.90
2017-11-09T11:59:25.880Z,99.90
2017-11-09T12:02:36.265Z,99.90
2017-11-09T12:05:46.364Z,99.90
2017-11-09T12:08:56.222Z,99.90
2017-11-09T12:12:07.362Z,99.90
2017-11-09T12:15:17.382Z,99.90
2017-11-09T12:18:27.757Z,99.90
2017-11-09T12:21:37.787Z,99.90
2017-11-09T12:24:47.977Z,99.90
2017-11-09T12:27:58.289Z,99.90
2017-11-09T12:31:08.861Z,99.90
2017-11-09T12:34:18.880Z,99.90
2017-11-09T12:37:29.013Z,99.90
2017-11-09T12:40:39.746Z,99.90
2017-11-09T12:43:50.377Z,99.90
2017-11-09T12:47:00.517Z,99.90
2017-11-09T12:50:10.873Z,99.90
2017-11-09T12:53:21.184Z,99.90
2017-11-09T12:56:31.529Z,99.90
2017-11-09T12:59:41.710Z,99.90
2017-11-09T13:02:51.769Z,99.90
2017-11-09T13:06:02.479Z,99.90
2017-11-09T13:09:12.610Z,99.90
2017-11-09T13:12:23.478Z,99.90
2017-11-09T13:15:33.584Z,99.90
2017-11-09T13:18:43.218Z,99.90
2017-11-09T13:21:53.093Z,99.90
2017-11-09T13:25:03.496Z,99.90
2017-11-09T13:28:13.532Z,99.90
2017-11-09T13:31:24.649Z,99.90
2017-11-09T13:34:37.961Z,99.90
2017-11-09T13:37:48.648Z,99.90
2017-11-09T13:40:58.743Z,99.90
2017-11-09T13:44:09.062Z,99.90
2017-11-09T13:47:19.393Z,99.90
2017-11-09T13:50:31.069Z,99.90
2017-11-09T13:53:42.446Z,99.90
2017-11-09T13:56:53.323Z,99.90
2017-11-09T14:00:05.583Z,99.90
2017-11-09T14:03:17.402Z,99.90
2017-11-09T14:06:28.751Z,99.90
2017-11-09T14:09:39.119Z,99.90
2017-11-09T14:12:48.942Z,99.90
2017-11-09T14:15:59.383Z,99.90
2017-11-09T14:19:09.986Z,99.90
2017-11-09T14:22:20.643Z,99.90
2017-11-09T14:25:31.504Z,99.90
2017-11-09T14:28:41.660Z,99.90
2017-11-09T14:31:51.419Z,99.90
2017-11-09T14:35:02.245Z,99.90
2017-11-09T14:38:12.575Z,99.90
2017-11-09T14:41:23.244Z,99.90
2017-11-09T14:44:33.245Z,99.90
2017-11-09T14:47:43.651Z,99.90
2017-11-09T14:50:54.010Z,99.90
2017-11-09T14:54:04.406Z,99.90
2017-11-09T14:57:14.482Z,99.90
2017-11-09T15:00:24.519Z,99.90
2017-11-09T15:03:34.493Z,99.90
2017-11-09T15:06:44.579Z,99.90
2017-11-09T15:09:55.040Z,99.90
2017-11-09T15:13:05.160Z,99.90
2017-11-09T15:16:15.156Z,99.90
2017-11-09T15:19:25.466Z,99.90
2017-11-09T15:22:35.116Z,99.90
2017-11-09T15:25:45.269Z,99.90
2017-11-09T15:28:56.368Z,99.90
2017-11-09T15:32:11.552Z,99.90
2017-11-09T15:35:22.148Z,99.90
2017-11-09T15:38:32.843Z,99.90
2017-11-09T15:41:42.722Z,99.90
2017-11-09T15:44:52.576Z,99.90
2017-11-09T15:48:02.785Z,99.90
2017-11-09T15:51:13.260Z,99.90
2017-11-09T15:54:23.866Z,99.90
2017-11-09T15:57:34.087Z,99.90
2017-11-09T16:00:44.696Z,99.90
2017-11-09T16:03:55.578Z,99.90
2017-11-09T16:07:11.244Z,99.90
2017-11-09T16:10:21.755Z,99.90
2017-11-09T16:13:32.325Z,99.90
2017-11-09T16:16:42.536Z,99.90
2017-11-09T16:19:52.282Z,99.90
2017-11-09T16:23:02.947Z,99.90
2017-11-09T16:26:13.039Z,99.90
2017-11-09T16:29:23.677Z,99.90
2017-11-09T16:32:33.576Z,99.90
2017-11-09T16:35:43.485Z,99.90
2017-11-09T16:38:53.511Z,99.90
2017-11-09T16:42:04.009Z,99.90
2017-11-09T16:45:13.557Z,99.90
2017-11-09T16:48:23.968Z,99.90
2017-11-09T16:51:34.106Z,99.90
2017-11-09T16:54:44.164Z,99.90
2017-11-09T16:57:54.137Z,99.90
2017-11-09T17:01:04.377Z,99.90
2017-11-09T17:04:15.877Z,99.90
2017-11-09T17:07:26.109Z,99.90
2017-11-09T17:10:37.013Z,99.90
2017-11-09T17:13:48.258Z,99.90
2017-11-09T17:16:59.114Z,99.90
2017-11-09T17:20:09.041Z,99.90
2017-11-09T17:23:18.850Z,99.90
2017-11-09T17:26:29.380Z,99.90
2017-11-09T17:29:39.696Z,99.90
2017-11-09T17:32:50.368Z,99.90
2017-11-09T17:36:00.185Z,99.90
2017-11-09T17:39:10.365Z,99.90
2017-11-09T17:42:20.496Z,99.90
2017-11-09T17:45:30.697Z,99.90
2017-11-09T17:48:40.677Z,99.90
2017-11-09T17:51:50.879Z,99.90
2017-11-09T17:55:00.919Z,99.90
2017-11-09T17:58:10.833Z,99.90
2017-11-09T18:01:21.040Z,99.90
2017-11-09T18:04:30.995Z,99.90
2017-11-09T18:07:41.018Z,99.90
2017-11-09T18:10:51.258Z,99.90
2017-11-09T18:14:01.176Z,99.90
2017-11-09T18:17:11.360Z,99.90
2017-11-09T18:20:21.548Z,99.90
2017-11-09T18:23:31.666Z,99.90
2017-11-09T18:26:42.217Z,99.90
2017-11-09T18:29:52.716Z,99.90
2017-11-09T18:33:03.077Z,99.90
2017-11-09T18:36:13.445Z,99.90
2017-11-09T18:39:23.325Z,99.90
2017-11-09T18:42:34.427Z,99.90
2017-11-09T18:45:44.876Z,99.90
2017-11-09T18:48:55.079Z,99.90
2017-11-09T18:52:05.339Z,99.90
2017-11-09T18:55:15.535Z,99.90
2017-11-09T18:58:25.754Z,99.90
2017-11-09T19:01:35.740Z,99.90
2017-11-09T19:04:46.097Z,99.90
2017-11-09T19:07:56.172Z,99.90
2017-11-09T19:11:06.467Z,99.90
2017-11-09T19:14:16.741Z,99.90
2017-11-09T19:17:27.650Z,99.90
2017-11-09T19:20:37.968Z,99.90
2017-11-09T19:23:47.877Z,99.90
2017-11-09T19:26:58.116Z,99.90
2017-11-09T19:30:08.200Z,99.90
2017-11-09T19:33:17.863Z,99.90
2017-11-09T19:36:28.331Z,99.90
2017-11-09T19:39:39.658Z,99.90
2017-11-09T19:42:49.587Z,99.90
2017-11-09T19:46:00.026Z,99.90
2017-11-09T19:49:10.877Z,99.90
2017-11-09T19:52:20.958Z,99.90
2017-11-09T19:55:30.941Z,99.90
2017-11-09T19:58:40.979Z,99.90
2017-11-09T20:01:51.817Z,99.90
2017-11-09T20:05:02.250Z,99.90
2017-11-09T20:08:12.851Z,99.90
2017-11-09T20:11:22.983Z,99.90
2017-11-09T20:14:33.018Z,99.90
2017-11-09T20:17:43.164Z,99.90
2017-11-09T20:20:53.432Z,99.90
2017-11-09T20:24:03.633Z,99.90
2017-11-09T20:27:13.468Z,99.90
2017-11-09T20:30:24.588Z,99.90
2017-11-09T20:33:34.314Z,99.90
2017-11-09T20:36:44.121Z,99.90
2017-11-09T20:39:54.112Z,99.90
2017-11-09T20:43:03.968Z,99.90
2017-11-09T20:46:14.077Z,99.90
2017-11-09T20:49:24.397Z,99.90
2017-11-09T20:52:34.921Z,99.90
2017-11-09T20:55:44.852Z,99.90
2017-11-09T20:58:55.942Z,99.90
2017-11-09T21:02:07.113Z,99.90
2017-11-09T21:05:17.597Z,99.90
2017-11-09T21:08:27.891Z,99.90
2017-11-09T21:11:38.037Z,99.90
2017-11-09T21:14:47.953Z,99.90
2017-11-09T21:17:57.760Z,99.90
2017-11-09T21:21:07.627Z,99.90
2017-11-09T21:24:18.139Z,99.90
2017-11-09T21:27:28.300Z,99.90
2017-11-09T21:30:38.358Z,99.90
2017-11-09T21:33:49.096Z,99.90
2017-11-09T21:36:59.339Z,99.90
2017-11-09T21:40:09.518Z,99.90
2017-11-09T21:43:19.899Z,99.90
2017-11-09T21:46:30.349Z,99.90
2017-11-09T21:49:40.215Z,99.90
2017-11-09T21:52:50.294Z,99.90
2017-11-09T21:56:00.685Z,99.90
2017-11-09T21:59:11.127Z,99.90
2017-11-09T22:02:21.616Z,99.90
2017-11-09T22:05:31.795Z,99.90
2017-11-09T22:08:42.069Z,99.90
2017-11-09T22:11:52.759Z,99.90
2017-11-09T22:15:02.582Z,99.90
2017-11-09T22:18:12.644Z,99.90
2017-11-09T22:21:22.592Z,99.90
2017-11-09T22:24:35.683Z,99.90
2017-11-09T22:27:46.006Z,99.90
2017-11-09T22:30:57.283Z,99.90
2017-11-09T22:34:09.010Z,99.80
2017-11-09T22:37:19.738Z,99.80
2017-11-09T22:40:30.681Z,99.90
2017-11-09T22:43:41.355Z,99.90
2017-11-09T22:46:51.515Z,99.80
2017-11-09T22:50:01.976Z,99.80
2017-11-09T22:53:11.874Z,99.90
2017-11-09T22:56:22.000Z,99.30
2017-11-09T22:59:32.317Z,99.40
2017-11-09T23:02:45.983Z,99.60
2017-11-09T23:05:57.246Z,99.20
2017-11-09T23:09:08.127Z,99.10
2017-11-09T23:12:18.735Z,99.50
2017-11-09T23:15:29.853Z,99.60
2017-11-09T23:18:40.196Z,99.70
2017-11-09T23:21:51.243Z,99.60
2017-11-09T23:25:01.860Z,99.80
2017-11-09T23:28:11.948Z,99.40
2017-11-09T23:31:21.800Z,99.50
2017-11-09T23:34:32.625Z,99.80
2017-11-09T23:37:42.760Z,99.80
2017-11-09T23:40:52.842Z,99.60
2017-11-09T23:44:02.796Z,98.60
2017-11-09T23:47:13.032Z,99.00
2017-11-09T23:50:22.944Z,99.40
2017-11-09T23:53:33.874Z,99.40
2017-11-09T23:56:44.712Z,99.50
2017-11-09T23:59:55.985Z,99.80
